sensor_id;sensor_type;location;lat;lon;timestamp;temperature;humidity
752;DHT22;360;48.764;9.164;2022-11-27T00:49:41;3.00;99.90
752;DHT22;360;48.764;9.164;2022-11-27T00:52:08;3.30;99.90
752;DHT22;360;48.764;9.164;2022-11-27T00:54:35;3.20;99.90
752;DHT22;360;48.764;9.164;2022-11-27T00:57:02;3.40;99.90
752;DHT22;360;48.764;9.164;2022-11-27T00:59:31;3.40;99.90
752;DHT22;360;48.764;9.164;2022-11-27T01:01:57;3.40;99.90
752;DHT22;360;48.764;9.164;2022-11-27T02:21:20;3.40;99.90
752;DHT22;360;48.764;9.164;2022-11-27T02:24:12;2.10;99.90
752;DHT22;360;48.764;9.164;2022-11-27T02:27:11;2.00;99.90
752;DHT22;360;48.764;9.164;2022-11-27T02:29:44;2.00;99.90
752;DHT22;360;48.764;9.164;2022-11-27T02:32:18;1.90;99.90
752;DHT22;360;48.764;9.164;2022-11-27T02:34:49;1.80;99.90
752;DHT22;360;48.764;9.164;2022-11-27T02:37:28;1.70;99.90
752;DHT22;360;48.764;9.164;2022-11-27T02:40:02;1.60;99.90
752;DHT22;360;48.764;9.164;2022-11-27T02:42:32;1.60;99.90
752;DHT22;360;48.764;9.164;2022-11-27T02:45:04;1.80;99.90
752;DHT22;360;48.764;9.164;2022-11-27T02:47:33;1.90;99.90
752;DHT22;360;48.764;9.164;2022-11-27T02:50:01;2.10;99.90
752;DHT22;360;48.764;9.164;2022-11-27T02:52:30;1.90;99.90
752;DHT22;360;48.764;9.164;2022-11-27T02:54:59;1.70;99.90
752;DHT22;360;48.764;9.164;2022-11-27T02:57:29;1.60;99.90
752;DHT22;360;48.764;9.164;2022-11-27T02:59:57;1.70;99.90
752;DHT22;360;48.764;9.164;2022-11-27T06:02:51;1.60;99.90
752;DHT22;360;48.764;9.164;2022-11-27T06:05:18;1.90;99.90
752;DHT22;360;48.764;9.164;2022-11-27T06:07:46;1.80;99.90
752;DHT22;360;48.764;9.164;2022-11-27T06:10:13;1.60;99.90
752;DHT22;360;48.764;9.164;2022-11-27T06:12:40;1.50;99.90
752;DHT22;360;48.764;9.164;2022-11-27T06:15:07;1.40;99.90
752;DHT22;360;48.764;9.164;2022-11-27T06:17:34;1.60;99.90
752;DHT22;360;48.764;9.164;2022-11-27T06:20:01;1.90;99.90
752;DHT22;360;48.764;9.164;2022-11-27T06:22:27;1.90;99.90
752;DHT22;360;48.764;9.164;2022-11-27T06:24:57;1.60;99.90
752;DHT22;360;48.764;9.164;2022-11-27T06:27:24;1.50;99.90
752;DHT22;360;48.764;9.164;2022-11-27T06:29:50;1.50;99.90
752;DHT22;360;48.764;9.164;2022-11-27T06:32:17;1.50;99.90
752;DHT22;360;48.764;9.164;2022-11-27T06:34:44;1.60;99.90
752;DHT22;360;48.764;9.164;2022-11-27T06:37:11;1.70;99.90
752;DHT22;360;48.764;9.164;2022-11-27T06:39:37;1.60;99.90
752;DHT22;360;48.764;9.164;2022-11-27T06:42:06;1.40;99.90
752;DHT22;360;48.764;9.164;2022-11-27T06:44:33;1.30;99.90
752;DHT22;360;48.764;9.164;2022-11-27T06:47:00;1.70;99.90
752;DHT22;360;48.764;9.164;2022-11-27T06:49:26;2.00;99.90
752;DHT22;360;48.764;9.164;2022-11-27T06:51:53;2.00;99.90
752;DHT22;360;48.764;9.164;2022-11-27T06:54:20;1.90;99.10
752;DHT22;360;48.764;9.164;2022-11-27T06:56:49;1.70;99.90
752;DHT22;360;48.764;9.164;2022-11-27T06:59:18;1.40;99.90
752;DHT22;360;48.764;9.164;2022-11-27T07:01:45;1.60;99.90
752;DHT22;360;48.764;9.164;2022-11-27T07:04:14;1.50;99.90
752;DHT22;360;48.764;9.164;2022-11-27T07:06:42;1.30;99.90
752;DHT22;360;48.764;9.164;2022-11-27T07:09:09;1.40;99.90
752;DHT22;360;48.764;9.164;2022-11-27T07:11:37;1.50;99.90
752;DHT22;360;48.764;9.164;2022-11-27T07:14:04;1.80;99.90
752;DHT22;360;48.764;9.164;2022-11-27T08:59:54;2.30;99.90
752;DHT22;360;48.764;9.164;2022-11-27T09:02:21;4.20;1.00
752;DHT22;360;48.764;9.164;2022-11-27T09:04:48;4.20;1.00
752;DHT22;360;48.764;9.164;2022-11-27T09:07:15;4.40;1.00
752;DHT22;360;48.764;9.164;2022-11-27T09:09:42;4.60;1.00
752;DHT22;360;48.764;9.164;2022-11-27T09:12:09;4.70;1.00
752;DHT22;360;48.764;9.164;2022-11-27T09:14:36;4.80;1.00
752;DHT22;360;48.764;9.164;2022-11-27T09:17:04;4.90;1.00
752;DHT22;360;48.764;9.164;2022-11-27T09:47:10;5.10;1.00
752;DHT22;360;48.764;9.164;2022-11-27T09:49:42;5.90;99.90
752;DHT22;360;48.764;9.164;2022-11-27T09:52:13;5.90;99.90
752;DHT22;360;48.764;9.164;2022-11-27T09:54:49;5.80;99.90
752;DHT22;360;48.764;9.164;2022-11-27T09:57:23;5.90;99.90
752;DHT22;360;48.764;9.164;2022-11-27T09:59:52;6.00;99.90
752;DHT22;360;48.764;9.164;2022-11-27T10:02:25;5.90;99.90
752;DHT22;360;48.764;9.164;2022-11-27T10:04:54;6.20;1.00
752;DHT22;360;48.764;9.164;2022-11-27T10:07:30;6.30;1.00
752;DHT22;360;48.764;9.164;2022-11-27T10:10:07;6.10;1.00
752;DHT22;360;48.764;9.164;2022-11-27T10:12:43;6.10;1.00
752;DHT22;360;48.764;9.164;2022-11-27T10:15:17;6.10;99.90
752;DHT22;360;48.764;9.164;2022-11-27T10:17:48;6.20;99.90
752;DHT22;360;48.764;9.164;2022-11-27T10:20:24;6.10;99.90
752;DHT22;360;48.764;9.164;2022-11-27T10:22:58;6.10;99.90
752;DHT22;360;48.764;9.164;2022-11-27T10:25:29;6.20;99.90
752;DHT22;360;48.764;9.164;2022-11-27T10:28:07;6.20;70.90
752;DHT22;360;48.764;9.164;2022-11-27T10:30:41;6.20;99.90
752;DHT22;360;48.764;9.164;2022-11-27T10:33:16;6.20;13.70
752;DHT22;360;48.764;9.164;2022-11-27T10:35:47;6.30;24.60
752;DHT22;360;48.764;9.164;2022-11-27T10:38:18;6.20;1.00
752;DHT22;360;48.764;9.164;2022-11-27T10:40:51;6.30;54.10
752;DHT22;360;48.764;9.164;2022-11-27T10:43:20;6.30;1.00
752;DHT22;360;48.764;9.164;2022-11-27T10:45:49;6.40;1.00
752;DHT22;360;48.764;9.164;2022-11-27T10:48:18;6.50;1.00
752;DHT22;360;48.764;9.164;2022-11-27T10:50:46;6.50;99.90
752;DHT22;360;48.764;9.164;2022-11-27T10:53:18;6.50;99.90
752;DHT22;360;48.764;9.164;2022-11-27T10:55:57;6.60;1.50
752;DHT22;360;48.764;9.164;2022-11-27T10:58:31;6.60;1.00
752;DHT22;360;48.764;9.164;2022-11-27T11:01:00;6.60;1.00
752;DHT22;360;48.764;9.164;2022-11-27T11:03:27;6.70;1.00
752;DHT22;360;48.764;9.164;2022-11-27T11:05:57;6.90;1.00
752;DHT22;360;48.764;9.164;2022-11-27T11:08:25;7.00;77.00
752;DHT22;360;48.764;9.164;2022-11-27T11:10:57;7.20;1.00
752;DHT22;360;48.764;9.164;2022-11-27T11:13:25;7.30;1.00
752;DHT22;360;48.764;9.164;2022-11-27T11:15:58;7.50;1.00
752;DHT22;360;48.764;9.164;2022-11-27T11:18:27;7.60;1.00
752;DHT22;360;48.764;9.164;2022-11-27T13:21:59;7.80;99.90
752;DHT22;360;48.764;9.164;2022-11-27T13:24:28;9.00;99.90
752;DHT22;360;48.764;9.164;2022-11-27T13:27:02;8.90;99.90
752;DHT22;360;48.764;9.164;2022-11-27T13:29:36;9.00;99.90
752;DHT22;360;48.764;9.164;2022-11-27T13:32:06;9.10;99.90
752;DHT22;360;48.764;9.164;2022-11-27T13:34:42;9.20;99.90
752;DHT22;360;48.764;9.164;2022-11-27T13:37:25;9.10;99.90
752;DHT22;360;48.764;9.164;2022-11-27T13:39:59;9.30;99.90
752;DHT22;360;48.764;9.164;2022-11-27T13:42:30;9.30;99.90
752;DHT22;360;48.764;9.164;2022-11-27T13:45:02;9.10;99.90
752;DHT22;360;48.764;9.164;2022-11-27T13:47:36;9.10;99.90
752;DHT22;360;48.764;9.164;2022-11-27T13:50:07;9.10;99.90
752;DHT22;360;48.764;9.164;2022-11-27T13:52:34;9.10;99.90
752;DHT22;360;48.764;9.164;2022-11-27T13:55:04;9.10;99.90
752;DHT22;360;48.764;9.164;2022-11-27T13:57:33;9.20;99.90
752;DHT22;360;48.764;9.164;2022-11-27T14:00:02;9.20;99.90
752;DHT22;360;48.764;9.164;2022-11-27T14:02:40;9.00;99.90
752;DHT22;360;48.764;9.164;2022-11-27T14:05:08;9.10;99.90
752;DHT22;360;48.764;9.164;2022-11-27T14:07:37;9.10;99.90
752;DHT22;360;48.764;9.164;2022-11-27T14:10:08;9.10;99.90
752;DHT22;360;48.764;9.164;2022-11-27T14:12:37;9.10;99.90
752;DHT22;360;48.764;9.164;2022-11-27T14:15:07;9.20;99.90
752;DHT22;360;48.764;9.164;2022-11-27T14:17:38;9.20;99.90
752;DHT22;360;48.764;9.164;2022-11-27T14:20:20;9.20;99.90
752;DHT22;360;48.764;9.164;2022-11-27T14:22:50;9.10;99.90
752;DHT22;360;48.764;9.164;2022-11-27T14:25:20;9.00;99.90
752;DHT22;360;48.764;9.164;2022-11-27T14:27:56;9.10;99.90
752;DHT22;360;48.764;9.164;2022-11-27T14:30:31;9.00;99.90
752;DHT22;360;48.764;9.164;2022-11-27T14:32:59;9.10;99.90
752;DHT22;360;48.764;9.164;2022-11-27T14:35:28;9.00;99.90
752;DHT22;360;48.764;9.164;2022-11-27T14:38:07;9.00;99.90
752;DHT22;360;48.764;9.164;2022-11-27T14:40:37;9.00;99.90
752;DHT22;360;48.764;9.164;2022-11-27T14:43:14;9.00;99.90
752;DHT22;360;48.764;9.164;2022-11-27T14:45:43;8.90;99.90
752;DHT22;360;48.764;9.164;2022-11-27T14:48:29;8.90;99.90
752;DHT22;360;48.764;9.164;2022-11-27T14:50:57;8.90;99.90
752;DHT22;360;48.764;9.164;2022-11-27T14:53:26;8.80;99.90
752;DHT22;360;48.764;9.164;2022-11-27T14:55:56;8.80;99.90
752;DHT22;360;48.764;9.164;2022-11-27T14:58:25;8.80;99.90
752;DHT22;360;48.764;9.164;2022-11-27T15:00:56;8.70;1.00
752;DHT22;360;48.764;9.164;2022-11-27T15:03:24;8.70;99.90
752;DHT22;360;48.764;9.164;2022-11-27T15:05:54;8.60;1.00
752;DHT22;360;48.764;9.164;2022-11-27T15:08:21;8.60;1.00
752;DHT22;360;48.764;9.164;2022-11-27T15:10:50;8.60;1.00
752;DHT22;360;48.764;9.164;2022-11-27T15:13:21;8.60;1.00
752;DHT22;360;48.764;9.164;2022-11-27T15:15:56;8.50;1.00
752;DHT22;360;48.764;9.164;2022-11-27T15:18:24;8.50;1.00
752;DHT22;360;48.764;9.164;2022-11-27T15:20:53;8.50;1.00
752;DHT22;360;48.764;9.164;2022-11-27T15:23:22;8.40;1.00
752;DHT22;360;48.764;9.164;2022-11-27T15:26:01;8.40;1.00
752;DHT22;360;48.764;9.164;2022-11-27T15:28:34;8.30;20.20
752;DHT22;360;48.764;9.164;2022-11-27T15:31:21;8.30;99.90
752;DHT22;360;48.764;9.164;2022-11-27T15:34:01;8.30;99.90
752;DHT22;360;48.764;9.164;2022-11-27T15:36:34;8.20;99.90
752;DHT22;360;48.764;9.164;2022-11-27T15:39:23;8.20;99.90
752;DHT22;360;48.764;9.164;2022-11-27T15:41:59;8.20;99.90
752;DHT22;360;48.764;9.164;2022-11-27T15:44:30;8.20;99.90
752;DHT22;360;48.764;9.164;2022-11-27T15:46:59;8.20;99.90
752;DHT22;360;48.764;9.164;2022-11-27T15:49:28;8.10;99.90
752;DHT22;360;48.764;9.164;2022-11-27T15:51:55;8.10;99.90
752;DHT22;360;48.764;9.164;2022-11-27T15:54:22;8.10;99.90
752;DHT22;360;48.764;9.164;2022-11-27T15:56:49;8.00;99.90
752;DHT22;360;48.764;9.164;2022-11-27T15:59:16;8.00;1.00
752;DHT22;360;48.764;9.164;2022-11-27T16:01:45;8.00;99.90
752;DHT22;360;48.764;9.164;2022-11-27T16:04:13;8.00;1.00
752;DHT22;360;48.764;9.164;2022-11-27T16:06:40;8.00;1.00
752;DHT22;360;48.764;9.164;2022-11-27T16:09:06;8.00;99.90
752;DHT22;360;48.764;9.164;2022-11-27T16:11:33;8.00;99.90
752;DHT22;360;48.764;9.164;2022-11-27T16:14:00;7.90;99.90
752;DHT22;360;48.764;9.164;2022-11-27T16:16:27;7.90;99.90
752;DHT22;360;48.764;9.164;2022-11-27T16:18:56;7.80;99.90
752;DHT22;360;48.764;9.164;2022-11-27T16:21:26;7.80;1.00
752;DHT22;360;48.764;9.164;2022-11-27T16:23:56;7.70;1.00
752;DHT22;360;48.764;9.164;2022-11-27T16:26:23;7.80;1.00
752;DHT22;360;48.764;9.164;2022-11-27T16:28:50;7.80;1.00
752;DHT22;360;48.764;9.164;2022-11-27T16:31:17;7.70;1.00
752;DHT22;360;48.764;9.164;2022-11-27T16:33:44;7.70;99.90
752;DHT22;360;48.764;9.164;2022-11-27T16:36:13;7.70;99.90
752;DHT22;360;48.764;9.164;2022-11-27T16:38:42;7.70;99.90
752;DHT22;360;48.764;9.164;2022-11-27T16:41:11;7.70;99.90
752;DHT22;360;48.764;9.164;2022-11-27T16:43:40;7.70;99.90
752;DHT22;360;48.764;9.164;2022-11-27T16:46:09;7.80;25.90
752;DHT22;360;48.764;9.164;2022-11-27T16:48:37;7.70;1.00
752;DHT22;360;48.764;9.164;2022-11-27T16:51:05;7.70;1.00
752;DHT22;360;48.764;9.164;2022-11-27T16:53:32;7.70;1.00
752;DHT22;360;48.764;9.164;2022-11-27T16:56:04;7.70;1.00
752;DHT22;360;48.764;9.164;2022-11-27T16:58:32;7.80;99.90
752;DHT22;360;48.764;9.164;2022-11-27T17:00:59;7.70;99.90
752;DHT22;360;48.764;9.164;2022-11-27T17:03:26;7.80;99.90
752;DHT22;360;48.764;9.164;2022-11-27T17:05:52;7.80;99.90
752;DHT22;360;48.764;9.164;2022-11-27T17:08:19;7.90;99.90
752;DHT22;360;48.764;9.164;2022-11-27T17:10:46;7.90;99.90
752;DHT22;360;48.764;9.164;2022-11-27T17:13:14;7.80;99.90
752;DHT22;360;48.764;9.164;2022-11-27T17:15:41;7.80;99.90
752;DHT22;360;48.764;9.164;2022-11-27T17:18:08;7.80;99.90
752;DHT22;360;48.764;9.164;2022-11-27T17:20:35;7.80;99.90
752;DHT22;360;48.764;9.164;2022-11-27T17:23:02;7.70;99.90
752;DHT22;360;48.764;9.164;2022-11-27T17:25:29;7.60;1.00
752;DHT22;360;48.764;9.164;2022-11-27T17:27:56;7.60;7.20
752;DHT22;360;48.764;9.164;2022-11-27T17:30:24;7.50;1.00
752;DHT22;360;48.764;9.164;2022-11-27T17:32:51;7.60;1.00
752;DHT22;360;48.764;9.164;2022-11-27T17:35:20;7.50;1.00
752;DHT22;360;48.764;9.164;2022-11-27T17:37:47;7.40;1.00
